Latest Coastal Weather Observations for Point Fawcett

IDD60701

Issued at 9:31 am CST Wednesday 29 June 2016 (issued every 10 minutes, with the page automatically refreshed every 10 minutes)

About coastal observations | Map of coastal stations | Coastal observations for NT | Marine services | Other Formats
Station Details ID: 200731 Name: POINT FAWCETT Lat: -11.76 Lon: 130.03 Height: 6.5 m
Data from the previous 72 hours. | See also: Recent months at Point Fawcett
Date/Time
CST
Temp
°C
Wind Pressure Rain since
9am
mm
Weather Cloud Vis
km
Sea
Height
m
Swell
Dir  Spd
kts
Gust
kts
hPa Trend Height
m
Period
s
Dir
29/09:30am 28.7 E 9 20 1015.9 - 0.0 - - - - - - -
29/09:00am 28.0 ESE 8 16 1015.8 - 0.0 - - - - - - -
29/08:30am 26.7 E 7 11 1015.6 - 0.0 - - - - - - -
29/08:00am 25.7 E 7 11 1015.6 - 0.0 - - - - - - -
29/07:30am 25.3 E 6 11 1015.3 - 0.0 - - - - - - -
29/07:00am 25.6 E 8 12 1015.0 - 0.0 - - - - - - -
29/06:30am 25.8 E 9 16 1014.6 - 0.0 - - - - - - -
29/06:00am 24.9 E 6 8 1014.2 - 0.0 - - - - - - -
29/05:30am 24.2 E 5 7 1014.1 - 0.0 - - - - - - -
29/05:00am 25.0 ESE 5 8 1013.9 - 0.0 - - - - - - -
29/04:30am 24.0 E 6 10 1013.8 - 0.0 - - - - - - -
29/04:00am 22.0 E 4 5 1013.8 - 0.0 - - - - - - -
29/03:30am 21.4 ESE 3 4 1013.9 - 0.0 - - - - - - -
29/03:00am 21.5 SE 3 5 1013.9 - 0.0 - - - - - - -
29/02:30am 21.6 SE 4 4 1014.2 - 0.0 - - - - - - -
29/02:00am 21.9 SE 4 4 1014.2 - 0.0 - - - - - - -
29/01:30am 21.6 ESE 4 5 1014.5 - 0.0 - - - - - - -
29/01:00am 21.7 SSE 3 4 1014.4 - 0.0 - - - - - - -
29/12:30am 22.0 SSE 4 5 1014.5 - 0.0 - - - - - - -
29/12:00am 22.9 S 4 4 1014.6 - 0.0 - - - - - - -
 
Date/Time
CST
Temp
°C
Wind Pressure Rain since
9am
mm
Weather Cloud Vis
km
Sea
Height
m
Swell
Dir  Spd
kts
Gust
kts
hPa Trend Height
m
Period
s
Dir
28/11:30pm 22.6 SSE 5 7 1014.6 - 0.0 - - - - - - -
28/11:00pm 22.3 E 5 6 1014.3 - 0.0 - - - - - - -
28/10:30pm 22.2 E 5 5 1014.5 - 0.0 - - - - - - -
28/10:00pm 22.0 ENE 4 5 1014.4 - 0.0 - - - - - - -
28/09:30pm 22.1 ENE 4 5 1014.2 - 0.0 - - - - - - -
28/09:00pm 22.6 ENE 4 5 1013.9 - 0.0 - - - - - - -
28/08:30pm 23.1 E 4 5 1013.7 - 0.0 - - - - - - -
28/08:00pm 23.6 E 4 5 1013.4 - 0.0 - - - - - - -
28/07:30pm 24.7 E 3 4 1013.1 - 0.0 - - - - - - -
28/07:00pm 26.6 E 3 4 1012.9 - 0.0 - - - - - - -
28/06:30pm 28.3 E 4 8 1012.6 - 0.0 - - - - - - -
28/06:00pm 29.7 E 6 9 1012.4 - 0.0 - - - - - - -
28/05:30pm 30.6 E 8 13 1012.1 - 0.0 - - - - - - -
28/05:00pm 30.8 E 8 15 1011.9 - 0.0 - - - - - - -
28/04:30pm 31.3 ESE 9 18 1011.6 - 0.0 - - - - - - -
28/04:00pm 31.6 ESE 10 15 1011.4 - 0.0 - - - - - - -
28/03:30pm 31.3 ESE 11 19 1011.5 - 0.0 - - - - - - -
28/03:00pm 31.3 ESE 10 19 1011.5 - 0.0 - - - - - - -
28/02:30pm 31.3 ESE 10 15 1011.6 - 0.0 - - - - - - -
28/02:00pm 31.4 ESE 10 17 1012.0 - 0.0 - - - - - - -
28/01:30pm 31.3 ESE 11 20 1012.2 - 0.0 - - - - - - -
28/01:00pm 31.1 ESE 11 17 1012.6 - 0.0 - - - - - - -
28/12:30pm 31.1 ESE 11 19 1013.0 - 0.0 - - - - - - -
28/12:00pm 31.0 ESE 10 16 1013.4 - 0.0 - - - - - - -
28/11:30am 30.8 E 9 17 1013.5 - 0.0 - - - - - - -
28/11:00am 29.9 E 11 19 1013.9 - 0.0 - - - - - - -
28/10:30am 29.8 E 11 21 1014.0 - 0.0 - - - - - - -
28/10:00am 29.8 E 11 21 1014.1 - 0.0 - - - - - - -
28/09:30am 28.9 E 10 16 1014.1 - 0.0 - - - - - - -
28/09:00am 28.1 E 8 13 1013.9 - 0.0 - - - - - - -
28/08:30am 26.4 E 6 10 1013.6 - 0.0 - - - - - - -
28/08:00am 24.4 E 6 10 1013.1 - 0.0 - - - - - - -
28/07:30am 22.7 E 5 8 1012.8 - 0.0 - - - - - - -
28/07:00am 21.2 ESE 4 5 1012.5 - 0.0 - - - - - - -
28/06:30am 21.3 E 4 5 1012.4 - 0.0 - - - - - - -
28/06:00am 21.7 E 4 5 1012.3 - 0.0 - - - - - - -
28/05:30am 22.2 E 4 5 1012.2 - 0.0 - - - - - - -
28/05:00am 22.5 ESE 4 6 1012.1 - 0.0 - - - - - - -
28/04:30am 22.6 ESE 4 7 1012.0 - 0.0 - - - - - - -
28/04:00am 21.7 ESE 4 6 1011.9 - 0.0 - - - - - - -
28/03:30am 21.6 ESE 4 5 1012.0 - 0.0 - - - - - - -
28/03:00am 21.9 ESE 4 5 1012.2 - 0.0 - - - - - - -
28/02:30am 21.6 SE 4 5 1012.5 - 0.0 - - - - - - -
28/02:00am 21.9 ESE 4 5 1012.8 - 0.0 - - - - - - -
28/01:30am 22.1 SE 4 5 1013.0 - 0.0 - - - - - - -
28/01:00am 22.5 SSE 4 4 1013.4 - 0.0 - - - - - - -
28/12:30am 22.7 SSE 3 4 1013.5 - 0.0 - - - - - - -
28/12:00am 23.4 SSE 4 4 1013.6 - 0.0 - - - - - - -
 
Date/Time
CST
Temp
°C
Wind Pressure Rain since
9am
mm
Weather Cloud Vis
km
Sea
Height
m
Swell
Dir  Spd
kts
Gust
kts
hPa Trend Height
m
Period
s
Dir
27/11:30pm 24.5 E 3 4 1013.7 - 0.0 - - - - - - -
27/11:00pm 25.7 E 3 5 1013.7 - 0.0 - - - - - - -
27/10:30pm 26.6 ENE 5 9 1013.5 - 0.0 - - - - - - -
27/10:00pm 26.9 NE 7 10 1013.2 - 0.0 - - - - - - -
27/09:30pm 26.9 NE 6 10 1013.1 - 0.0 - - - - - - -
27/09:00pm 26.6 NE 7 10 1012.9 - 0.0 - - - - - - -
27/08:30pm 23.6 ENE 4 6 1012.4 - 0.0 - - - - - - -
27/08:00pm 24.0 ENE 4 5 1011.9 - 0.0 - - - - - - -
27/07:30pm 24.9 ENE 4 5 1011.5 - 0.0 - - - - - - -
27/07:00pm 26.7 E 4 6 1011.2 - 0.0 - - - - - - -
27/06:30pm 28.9 E 5 9 1010.8 - 0.0 - - - - - - -
27/06:00pm 30.5 E 5 9 1010.3 - 0.0 - - - - - - -
27/05:30pm 31.4 E 6 10 1009.9 - 0.0 - - - - - - -
27/05:00pm 31.7 ESE 8 14 1009.8 - 0.0 - - - - - - -
27/04:30pm 31.9 SE 7 12 1009.6 - 0.0 - - - - - - -
27/04:00pm 32.3 ESE 7 11 1009.6 - 0.0 - - - - - - -
27/03:30pm 32.1 SE 8 15 1009.6 - 0.0 - - - - - - -
27/03:00pm 32.6 ESE 8 13 1009.8 - 0.0 - - - - - - -
27/02:30pm 32.6 SE 7 13 1010.1 - 0.0 - - - - - - -
27/02:00pm 32.7 ESE 7 12 1010.5 - 0.0 - - - - - - -
27/01:30pm 33.5 E 5 9 1011.0 - 0.0 - - - - - - -
27/01:00pm 32.3 ESE 6 10 1011.5 - 0.0 - - - - - - -
27/12:30pm 32.3 E 8 11 1011.9 - 0.0 - - - - - - -
27/12:00pm 32.6 E 6 10 1012.2 - 0.0 - - - - - - -
27/11:30am 31.8 E 5 9 1012.6 - 0.0 - - - - - - -
27/11:00am 31.4 E 6 10 1012.8 - 0.0 - - - - - - -
27/10:30am 31.0 ENE 7 10 1013.2 - 0.0 - - - - - - -
27/10:00am 29.8 E 6 9 1013.4 - 0.0 - - - - - - -
27/09:30am 28.6 E 6 8 1013.4 - 0.0 - - - - - - -
27/09:00am 27.0 E 4 6 1013.2 - 0.0 - - - - - - -
27/08:30am 24.3 ESE 3 5 1013.1 - 0.0 - - - - - - -
27/08:00am 20.9 ESE 4 5 1012.8 - 0.0 - - - - - - -
27/07:30am 19.5 ESE 4 5 1012.4 - 0.0 - - - - - - -
27/07:00am 19.3 SE 4 5 1012.1 - 0.0 - - - - - - -
27/06:30am 19.4 SE 4 5 1011.7 - 0.0 - - - - - - -
27/06:00am 19.0 SE 5 5 1011.5 - 0.0 - - - - - - -
27/05:30am 19.0 E 4 5 1011.2 - 0.0 - - - - - - -
27/05:00am 19.1 SE 4 5 1011.2 - 0.0 - - - - - - -
27/04:30am 19.1 SE 4 5 1011.2 - 0.0 - - - - - - -
27/04:00am 19.2 SE 5 5 1011.2 - 0.0 - - - - - - -
27/03:30am 19.1 ESE 4 5 1011.1 - 0.0 - - - - - - -
27/03:00am 19.3 ESE 4 5 1011.3 - 0.0 - - - - - - -
27/02:30am 19.3 ESE 4 5 1011.6 - 0.0 - - - - - - -
27/02:00am 19.4 ENE 5 5 1011.8 - 0.0 - - - - - - -
27/01:30am 19.5 E 4 5 1011.8 - 0.0 - - - - - - -
27/01:00am 19.8 E 4 5 1012.0 - 0.0 - - - - - - -
27/12:30am 20.2 ESE 4 4 1012.2 - 0.0 - - - - - - -
27/12:00am 20.4 ESE 4 4 1012.3 - 0.0 - - - - - - -
 
Date/Time
CST
Temp
°C
Wind Pressure Rain since
9am
mm
Weather Cloud Vis
km
Sea
Height
m
Swell
Dir  Spd
kts
Gust
kts
hPa Trend Height
m
Period
s
Dir
26/11:30pm 20.7 ESE 4 4 1012.4 - 0.0 - - - - - - -
26/11:00pm 21.2 E 4 5 1012.5 - 0.0 - - - - - - -
26/10:30pm 21.4 E 4 5 1012.4 - 0.0 - - - - - - -
26/10:00pm 21.8 E 5 5 1012.3 - 0.0 - - - - - - -
26/09:30pm 22.4 E 5 5 1012.1 - 0.0 - - - - - - -
26/09:00pm 22.6 E 5 6 1012.1 - 0.0 - - - - - - -
26/08:30pm 22.6 E 4 5 1011.9 - 0.0 - - - - - - -
26/08:00pm 22.9 E 4 5 1011.5 - 0.0 - - - - - - -
26/07:30pm 23.6 ESE 4 4 1011.2 - 0.0 - - - - - - -
26/07:00pm 25.1 E 3 3 1010.9 - 0.0 - - - - - - -
26/06:30pm 27.6 E 4 5 1010.8 - 0.0 - - - - - - -
26/06:00pm 29.4 E 4 7 1010.4 - 0.0 - - - - - - -
26/05:30pm 30.1 E 4 7 1010.2 - 0.0 - - - - - - -
26/05:00pm 29.9 ESE 4 6 1010.0 - 0.0 - - - - - - -
26/04:30pm 29.9 E 6 12 1009.9 - 0.0 - - - - - - -
26/04:00pm 31.5 E 8 14 1009.8 - 0.0 - - - - - - -
26/03:30pm 31.8 ESE 8 11 1009.9 - 0.0 - - - - - - -
26/03:00pm 30.6 ESE 7 13 1010.1 - 0.0 - - - - - - -
26/02:30pm 30.0 ESE 8 14 1010.4 - 0.0 - - - - - - -
26/02:00pm 30.1 ESE 7 13 1010.7 - 0.0 - - - - - - -
26/01:30pm 29.8 ESE 8 13 1011.0 - 0.0 - - - - - - -
26/01:00pm 30.0 ESE 8 13 1011.5 - 0.0 - - - - - - -
26/12:30pm 29.4 SE 10 17 1012.2 - 0.0 - - - - - - -
26/12:00pm 28.9 SE 8 14 1012.5 - 0.0 - - - - - - -
26/11:30am 28.6 SE 7 11 1012.8 - 0.0 - - - - - - -
26/11:00am 29.2 SE 5 8 1013.1 - 0.0 - - - - - - -
26/10:30am 30.3 E 7 13 1013.4 - 0.0 - - - - - - -
26/10:00am 27.8 E 6 11 1013.5 - 0.0 - - - - - - -

Other Formats:

Comma delimited format used in spreadsheet applications
http://www.bom.gov.au/fwo/IDD60701/IDD60701.94122.axf

JavaScript Object Notation format (JSON) in row-major order
http://www.bom.gov.au/fwo/IDD60701/IDD60701.94122.json